Aérodrome :
LOGIN :

S'inscrire | Disclaimer

   EN    FR    IT 

 










Légende :    VFR   VFR Marginal   IFR   IFR Intensif   IFR Très Intensif
Visi : 
Plafond : 
>= 8 km
>= 3000ft
5 à 8 km
1000 à 3000 ft
1500m à 5 km
500 à 1000 ft
800 à 1500m
200 à 500 ft
< 800m
< 200 ft
Symboles :   Orages  Brouillard  Fortes neiges  Fortes précipitations  Vent > 20 kt
SIGMETs :   Divers  Orages  Givrage  Turbulence  Onde Orograph.  Cendres Volcan.






- Altitude de l'aérodrome : 1273 ft
- Code IATA : LJU


LJLJ - Ljubljana

DERNIER METAR :
  • 220200Z 28002KT CAVOK M06/M07 Q1035 NOSIG

METARs EXPIRÉS :
  • 220130Z VRB01KT CAVOK M06/M07 Q1036 NOSIG
  • 220100Z VRB01KT CAVOK M06/M08 Q1036 NOSIG
  • 220030Z 00000KT CAVOK M06/M07 Q1036 NOSIG
  • 220000Z VRB01KT CAVOK M06/M07 Q1037 NOSIG
  • 212330Z 31004KT CAVOK M07/M08 Q1037 NOSIG

TAF TAF LJLJ
Valide du 22 à 00h jusqu'au 23 à 00h UTC


212300Z 2200/2224 VRB02KT CAVOK
PROB40
TEMPO 2201/2208 5000 BR
PROB30
TEMPO 2203/2208 0350 FZFG VV001
TEMPO 2211/2217 12004KT



MET'MAP, la Météo Aéronautique d'un coup d'oeil ! - Copyright ORBIFLY Décembre 2007 - Disclaimer

ORBIFLY MET'MAP TEAM :

Programmation & Développement : Alexandra Zaïnal
Sur une idée originale de : Baudouin d'Aumeries
Assistance à la programmation : Marc-Olivier Méhu
Soutien technique & logistique : Manuel Goepfert

Contact : metmap@orbifly.com




SOURCES & CREDITS :

   NOAA